createdAt,value
2018-06-28T00:00:07.442Z,18.59
2018-06-28T00:02:36.282Z,18.57
2018-06-28T00:05:05.039Z,18.54
2018-06-28T00:07:33.570Z,18.52
2018-06-28T00:10:02.351Z,18.52
2018-06-28T00:12:30.801Z,18.51
2018-06-28T00:14:59.580Z,18.51
2018-06-28T00:17:28.223Z,18.52
2018-06-28T00:19:57.649Z,18.51
2018-06-28T00:22:26.535Z,18.50
2018-06-28T00:24:55.074Z,18.50
2018-06-28T00:27:23.558Z,18.50
2018-06-28T00:29:52.290Z,18.50
2018-06-28T00:32:21.181Z,18.48
2018-06-28T00:34:49.845Z,18.47
2018-06-28T00:37:19.098Z,18.47
2018-06-28T00:39:47.572Z,18.44
2018-06-28T00:42:16.066Z,18.42
2018-06-28T00:44:44.701Z,18.22
2018-06-28T00:47:13.309Z,18.36
2018-06-28T00:49:43.409Z,18.36
2018-06-28T00:52:12.290Z,18.37
2018-06-28T00:54:40.861Z,18.36
2018-06-28T00:57:09.343Z,18.35
2018-06-28T00:59:38.657Z,18.34
2018-06-28T01:02:07.177Z,18.33
2018-06-28T01:04:35.649Z,18.32
2018-06-28T01:07:04.291Z,18.29
2018-06-28T01:09:32.918Z,18.26
2018-06-28T01:12:01.351Z,18.24
2018-06-28T01:14:29.877Z,18.23
2018-06-28T01:16:58.441Z,18.22
2018-06-28T01:19:26.935Z,18.20
2018-06-28T01:21:55.608Z,18.18
2018-06-28T01:24:25.554Z,18.18
2018-06-28T01:26:54.085Z,18.17
2018-06-28T01:29:22.878Z,18.17
2018-06-28T01:31:51.512Z,18.16
2018-06-28T01:34:20.383Z,18.16
2018-06-28T01:36:49.549Z,18.16
2018-06-28T01:39:18.065Z,18.15
2018-06-28T01:41:58.289Z,18.15
2018-06-28T01:44:26.797Z,18.11
2018-06-28T01:46:55.383Z,18.10
2018-06-28T01:49:24.357Z,18.11
2018-06-28T01:51:52.905Z,18.10
2018-06-28T01:54:21.324Z,18.09
2018-06-28T01:56:50.107Z,18.10
2018-06-28T01:59:18.927Z,18.10
2018-06-28T02:01:47.358Z,18.11
2018-06-28T02:04:15.922Z,18.11
2018-06-28T02:06:44.510Z,18.11
2018-06-28T02:09:12.950Z,18.12
2018-06-28T02:11:41.369Z,18.13
2018-06-28T02:14:10.081Z,18.14
2018-06-28T02:16:38.541Z,18.14
2018-06-28T02:19:07.406Z,18.15
2018-06-28T02:21:36.138Z,18.16
2018-06-28T02:24:04.591Z,18.16
2018-06-28T02:26:33.005Z,18.11
2018-06-28T02:29:01.531Z,18.09
2018-06-28T02:31:30.239Z,18.07
2018-06-28T02:33:58.696Z,18.06
2018-06-28T02:36:27.153Z,18.10
2018-06-28T02:38:56.705Z,18.11
2018-06-28T02:41:26.431Z,18.11
2018-06-28T02:43:55.581Z,18.11
2018-06-28T02:46:24.794Z,18.07
2018-06-28T02:48:53.416Z,18.07
2018-06-28T02:51:21.925Z,18.07
2018-06-28T02:53:50.433Z,18.09
2018-06-28T02:56:19.489Z,18.11
2018-06-28T02:58:48.110Z,18.11
2018-06-28T03:01:16.626Z,18.13
2018-06-28T03:03:45.273Z,18.13
2018-06-28T03:06:13.733Z,18.14
2018-06-28T03:08:42.157Z,18.17
2018-06-28T03:11:10.814Z,18.21
2018-06-28T03:13:39.397Z,18.22
2018-06-28T03:16:07.905Z,18.27
2018-06-28T03:18:36.582Z,18.28
2018-06-28T03:21:05.047Z,18.29
2018-06-28T03:23:33.566Z,18.31
2018-06-28T03:26:02.206Z,18.35
2018-06-28T03:28:30.717Z,18.40
2018-06-28T03:30:59.257Z,18.45
2018-06-28T03:33:27.893Z,18.47
2018-06-28T03:35:56.400Z,18.52
2018-06-28T03:38:25.506Z,18.57
2018-06-28T03:40:54.564Z,18.61
2018-06-28T03:43:23.070Z,18.65
2018-06-28T03:45:51.508Z,18.68
2018-06-28T03:48:20.330Z,18.54
2018-06-28T03:50:49.279Z,18.76
2018-06-28T03:53:17.709Z,18.83
2018-06-28T03:55:46.209Z,18.87
2018-06-28T03:58:14.922Z,18.93
2018-06-28T04:00:43.429Z,18.98
2018-06-28T04:03:11.953Z,19.04
2018-06-28T04:05:40.797Z,19.10
2018-06-28T04:08:09.258Z,19.18
2018-06-28T04:10:37.873Z,19.23
2018-06-28T04:13:06.721Z,19.29
2018-06-28T04:15:35.146Z,19.35
2018-06-28T04:18:03.818Z,19.42
2018-06-28T04:20:39.090Z,19.48
2018-06-28T04:23:07.762Z,19.54
2018-06-28T04:25:36.189Z,19.60
2018-06-28T04:28:05.856Z,19.65
2018-06-28T04:30:34.826Z,19.71
2018-06-28T04:33:03.354Z,19.59
2018-06-28T04:35:32.285Z,19.83
2018-06-28T04:38:00.714Z,19.90
2018-06-28T04:40:29.145Z,19.96
2018-06-28T04:42:58.001Z,20.02
2018-06-28T04:45:26.630Z,20.08
2018-06-28T04:47:55.054Z,20.18
2018-06-28T04:50:23.841Z,20.25
2018-06-28T04:52:52.715Z,20.30
2018-06-28T04:55:21.229Z,20.38
2018-06-28T04:57:49.695Z,20.45
2018-06-28T05:00:18.290Z,20.53
2018-06-28T05:02:47.001Z,20.59
2018-06-28T05:05:15.461Z,20.66
2018-06-28T05:07:44.397Z,20.73
2018-06-28T05:10:12.821Z,20.79
2018-06-28T05:12:41.300Z,20.84
2018-06-28T05:15:09.966Z,20.89
2018-06-28T05:17:38.423Z,20.96
2018-06-28T05:20:06.924Z,21.04
2018-06-28T05:22:35.521Z,21.12
2018-06-28T05:25:04.546Z,21.20
2018-06-28T05:27:33.026Z,21.26
2018-06-28T05:30:01.692Z,21.31
2018-06-28T05:32:30.557Z,21.37
2018-06-28T05:34:59.120Z,21.43
2018-06-28T05:37:27.678Z,21.47
2018-06-28T05:39:56.515Z,21.54
2018-06-28T05:42:24.989Z,21.60
2018-06-28T05:44:53.763Z,21.67
2018-06-28T05:47:22.362Z,21.74
2018-06-28T05:49:50.810Z,21.81
2018-06-28T05:52:19.309Z,21.88
2018-06-28T05:54:48.045Z,21.95
2018-06-28T05:57:16.522Z,22.03
2018-06-28T05:59:45.257Z,22.09
2018-06-28T06:02:14.348Z,22.17
2018-06-28T06:04:43.178Z,22.27
2018-06-28T06:07:11.721Z,22.33
2018-06-28T06:09:40.441Z,22.41
2018-06-28T06:12:09.202Z,22.50
2018-06-28T06:14:37.798Z,22.60
2018-06-28T06:17:06.255Z,22.69
2018-06-28T06:19:34.858Z,22.79
2018-06-28T06:22:03.389Z,22.90
2018-06-28T06:24:31.867Z,23.01
2018-06-28T06:27:00.422Z,23.12
2018-06-28T06:29:29.431Z,23.23
2018-06-28T06:31:58.139Z,23.31
2018-06-28T06:34:26.850Z,23.37
2018-06-28T06:36:55.497Z,23.42
2018-06-28T06:39:23.974Z,23.46
2018-06-28T06:41:52.731Z,23.54
2018-06-28T06:44:21.166Z,23.58
2018-06-28T06:46:49.845Z,23.65
2018-06-28T06:49:18.490Z,23.74
2018-06-28T06:51:47.346Z,23.82
2018-06-28T06:54:15.786Z,23.89
2018-06-28T06:56:44.814Z,23.98
2018-06-28T06:59:13.389Z,24.03
2018-06-28T07:01:41.813Z,24.10
2018-06-28T07:04:11.395Z,24.17
2018-06-28T07:06:40.086Z,24.23
2018-06-28T07:09:10.921Z,24.36
2018-06-28T07:11:39.561Z,24.49
2018-06-28T07:14:08.446Z,24.63
2018-06-28T07:16:36.926Z,24.76
2018-06-28T07:19:05.629Z,24.82
2018-06-28T07:21:34.772Z,24.93
2018-06-28T07:24:03.522Z,25.01
2018-06-28T07:26:31.975Z,25.15
2018-06-28T07:29:00.581Z,25.23
2018-06-28T07:31:29.428Z,25.40
2018-06-28T07:33:57.890Z,25.60
2018-06-28T07:36:26.815Z,25.74
2018-06-28T07:38:55.263Z,25.91
2018-06-28T07:41:23.789Z,26.14
2018-06-28T07:43:55.716Z,26.32
2018-06-28T07:46:24.158Z,26.71
2018-06-28T07:48:53.035Z,27.06
2018-06-28T07:51:21.535Z,27.45
2018-06-28T07:53:50.418Z,27.75
2018-06-28T07:56:18.858Z,28.05
2018-06-28T07:58:48.653Z,28.01
2018-06-28T08:01:17.226Z,28.42
2018-06-28T08:03:45.709Z,28.49
2018-06-28T08:06:14.250Z,28.37
2018-06-28T08:08:43.410Z,28.33
2018-06-28T08:11:11.874Z,28.38
2018-06-28T08:13:40.478Z,28.66
2018-06-28T08:16:09.267Z,28.75
2018-06-28T08:18:38.725Z,28.89
2018-06-28T08:21:07.110Z,28.95
2018-06-28T08:23:35.566Z,28.92
2018-06-28T08:26:04.057Z,28.94
2018-06-28T08:28:32.942Z,28.84
2018-06-28T08:31:01.482Z,29.08
2018-06-28T08:33:30.312Z,29.17
2018-06-28T08:35:59.001Z,29.45
2018-06-28T08:38:27.381Z,29.60
2018-06-28T08:40:55.885Z,29.64
2018-06-28T08:43:24.754Z,29.73
2018-06-28T08:45:53.170Z,29.72
2018-06-28T08:48:21.822Z,29.96
2018-06-28T08:50:50.825Z,29.79
2018-06-28T08:53:19.461Z,29.58
2018-06-28T08:55:48.655Z,29.69
2018-06-28T08:58:17.476Z,30.33
2018-06-28T09:00:45.862Z,30.34
2018-06-28T09:03:14.529Z,30.26
2018-06-28T09:05:43.799Z,30.34
2018-06-28T09:08:12.197Z,30.11
2018-06-28T09:10:40.742Z,29.69
2018-06-28T09:13:09.693Z,30.00
2018-06-28T09:15:38.250Z,30.04
2018-06-28T09:18:06.834Z,29.78
2018-06-28T09:20:35.525Z,29.85
2018-06-28T09:23:04.093Z,30.01
2018-06-28T09:25:32.518Z,30.16
2018-06-28T09:28:01.118Z,30.14
2018-06-28T09:30:30.580Z,30.16
2018-06-28T09:32:58.993Z,30.09
2018-06-28T09:35:27.785Z,30.07
2018-06-28T09:37:56.257Z,30.40
2018-06-28T09:40:24.737Z,30.76
2018-06-28T09:42:53.406Z,30.56
2018-06-28T09:45:21.854Z,30.57
2018-06-28T09:47:50.464Z,30.60
2018-06-28T09:50:19.275Z,30.56
2018-06-28T09:52:47.961Z,30.68
2018-06-28T09:55:16.811Z,30.63
2018-06-28T09:57:46.293Z,30.45
2018-06-28T10:00:19.014Z,30.80
2018-06-28T10:02:47.818Z,31.10
2018-06-28T10:05:16.598Z,31.13
2018-06-28T10:07:45.175Z,31.17
2018-06-28T10:10:13.987Z,31.54
2018-06-28T10:12:42.485Z,31.55
2018-06-28T10:15:11.005Z,31.89
2018-06-28T10:17:39.949Z,32.21
2018-06-28T10:20:08.407Z,32.52
2018-06-28T10:22:36.980Z,32.79
2018-06-28T10:25:05.973Z,32.84
2018-06-28T10:27:34.329Z,32.79
2018-06-28T10:30:02.776Z,32.76
2018-06-28T10:32:31.533Z,32.28
2018-06-28T10:35:00.169Z,31.99
2018-06-28T10:37:28.585Z,32.24
2018-06-28T10:39:57.329Z,32.08
2018-06-28T10:42:25.757Z,32.17
2018-06-28T10:44:54.227Z,32.25
2018-06-28T10:47:24.233Z,32.25
2018-06-28T10:49:52.673Z,32.67
2018-06-28T10:52:21.143Z,32.70
2018-06-28T10:54:49.926Z,32.55
2018-06-28T10:57:18.473Z,32.63
2018-06-28T10:59:46.941Z,32.76
2018-06-28T11:02:15.632Z,32.94
2018-06-28T11:04:44.717Z,32.38
2018-06-28T11:07:13.149Z,32.11
2018-06-28T11:09:41.835Z,31.94
2018-06-28T11:12:10.798Z,32.08
2018-06-28T11:14:39.426Z,32.06
2018-06-28T11:17:08.186Z,31.99
2018-06-28T11:19:36.843Z,32.08
2018-06-28T11:22:05.313Z,32.13
2018-06-28T11:24:34.113Z,32.02
2018-06-28T11:27:02.781Z,32.01
2018-06-28T11:29:31.236Z,32.77
2018-06-28T11:31:59.886Z,33.08
2018-06-28T11:34:28.649Z,32.90
2018-06-28T11:36:57.136Z,32.72
2018-06-28T11:39:25.702Z,32.67
2018-06-28T11:41:54.413Z,32.83
2018-06-28T11:44:22.846Z,33.08
2018-06-28T11:46:51.362Z,33.10
2018-06-28T11:49:20.352Z,33.02
2018-06-28T11:51:48.802Z,32.78
2018-06-28T11:54:17.409Z,32.81
2018-06-28T11:56:46.715Z,32.96
2018-06-28T11:59:15.148Z,33.23
2018-06-28T12:01:43.901Z,33.37
2018-06-28T12:04:12.554Z,33.71
2018-06-28T12:06:40.977Z,33.56
2018-06-28T12:09:11.034Z,33.17
2018-06-28T12:11:39.953Z,32.94
2018-06-28T12:14:08.785Z,32.83
2018-06-28T12:16:37.429Z,33.22
2018-06-28T12:19:05.857Z,33.57
2018-06-28T12:21:34.678Z,33.98
2018-06-28T12:24:03.369Z,34.07
2018-06-28T12:26:31.807Z,34.02
2018-06-28T12:29:00.335Z,34.08
2018-06-28T12:31:29.649Z,33.68
2018-06-28T12:33:58.089Z,33.67
2018-06-28T12:36:26.719Z,33.68
2018-06-28T12:38:55.414Z,34.56
2018-06-28T12:41:23.857Z,34.63
2018-06-28T12:43:52.428Z,34.33
2018-06-28T12:46:37.979Z,34.14
2018-06-28T12:49:08.306Z,32.75
2018-06-28T12:51:53.223Z,31.94
2018-06-28T12:54:21.759Z,31.61
2018-06-28T12:56:56.769Z,31.45
2018-06-28T12:59:41.651Z,31.67
2018-06-28T13:02:10.385Z,31.30
2018-06-28T13:04:38.821Z,31.18
2018-06-28T13:07:07.747Z,31.61
2018-06-28T13:09:36.542Z,31.88
2018-06-28T13:12:05.039Z,31.82
2018-06-28T13:14:42.713Z,31.89
2018-06-28T13:17:20.978Z,31.59
2018-06-28T13:19:49.466Z,31.58
2018-06-28T13:22:17.902Z,31.56
2018-06-28T13:24:46.695Z,31.70
2018-06-28T13:27:15.162Z,32.31
2018-06-28T13:29:43.586Z,32.29
2018-06-28T13:32:12.093Z,31.96
2018-06-28T13:34:41.210Z,32.34
2018-06-28T13:37:09.643Z,32.81
2018-06-28T13:39:39.186Z,33.12
2018-06-28T13:42:07.922Z,32.42
2018-06-28T13:44:36.342Z,31.75
2018-06-28T13:47:05.260Z,31.73
2018-06-28T13:49:33.840Z,31.87
2018-06-28T13:52:02.302Z,32.05
2018-06-28T13:54:30.822Z,32.30
2018-06-28T13:56:59.818Z,32.19
2018-06-28T13:59:28.857Z,32.00
2018-06-28T14:01:57.474Z,32.39
2018-06-28T14:04:26.470Z,32.50
2018-06-28T14:06:55.189Z,32.43
2018-06-28T14:09:23.744Z,32.87
2018-06-28T14:11:52.328Z,32.95
2018-06-28T14:14:20.770Z,33.00
2018-06-28T14:16:49.345Z,33.31
2018-06-28T14:19:17.993Z,33.23
2018-06-28T14:21:46.469Z,33.17
2018-06-28T14:24:15.130Z,33.53
2018-06-28T14:26:43.622Z,33.65
2018-06-28T14:29:12.092Z,33.54
2018-06-28T14:31:40.885Z,33.79
2018-06-28T14:34:09.465Z,33.73
2018-06-28T14:36:37.902Z,33.57
2018-06-28T14:39:08.625Z,33.23
2018-06-28T14:41:37.543Z,32.05
2018-06-28T14:44:05.985Z,31.86
2018-06-28T14:46:34.414Z,31.67
2018-06-28T14:49:03.049Z,32.40
2018-06-28T14:51:31.756Z,33.17
2018-06-28T14:54:00.775Z,33.36
2018-06-28T14:56:29.789Z,32.84
2018-06-28T14:58:58.401Z,32.44
2018-06-28T15:01:26.842Z,32.42
2018-06-28T15:03:55.849Z,32.20
2018-06-28T15:06:24.446Z,31.93
2018-06-28T15:08:52.873Z,31.03
2018-06-28T15:11:21.327Z,30.71
2018-06-28T15:13:50.070Z,30.71
2018-06-28T15:16:18.514Z,30.59
2018-06-28T15:18:47.163Z,30.24
2018-06-28T15:21:15.987Z,29.75
2018-06-28T15:23:44.637Z,29.51
2018-06-28T15:26:19.522Z,29.23
2018-06-28T15:28:48.531Z,29.05
2018-06-28T15:31:17.230Z,28.94
2018-06-28T15:33:45.795Z,28.94
2018-06-28T15:36:14.718Z,28.95
2018-06-28T15:38:43.232Z,28.20
2018-06-28T15:41:11.719Z,28.89
2018-06-28T15:43:40.169Z,28.46
2018-06-28T15:46:08.937Z,28.29
2018-06-28T15:48:37.397Z,28.01
2018-06-28T15:51:06.066Z,27.81
2018-06-28T15:53:34.582Z,27.63
2018-06-28T15:56:03.765Z,27.63
2018-06-28T15:58:32.276Z,27.36
2018-06-28T16:01:01.081Z,27.34
2018-06-28T16:03:30.453Z,27.34
2018-06-28T16:05:59.802Z,27.42
2018-06-28T16:08:28.411Z,27.47
2018-06-28T16:10:57.026Z,27.41
2018-06-28T16:13:25.550Z,27.40
2018-06-28T16:15:54.066Z,27.25
2018-06-28T16:18:22.536Z,27.19
2018-06-28T16:20:50.954Z,27.25
2018-06-28T16:23:20.185Z,27.82
2018-06-28T16:25:48.701Z,27.96
2018-06-28T16:28:17.154Z,27.96
2018-06-28T16:30:45.782Z,27.94
2018-06-28T16:33:14.254Z,27.89
2018-06-28T16:35:42.693Z,27.69
2018-06-28T16:38:11.402Z,28.05
2018-06-28T16:40:40.217Z,28.68
2018-06-28T16:43:08.678Z,29.36
2018-06-28T16:45:37.286Z,29.70
2018-06-28T16:48:05.841Z,29.77
2018-06-28T16:50:34.282Z,29.23
2018-06-28T16:53:02.854Z,28.71
2018-06-28T16:55:31.301Z,28.22
2018-06-28T16:57:59.753Z,27.92
2018-06-28T17:00:28.354Z,27.86
2018-06-28T17:02:57.033Z,28.03
2018-06-28T17:05:25.503Z,27.94
2018-06-28T17:07:54.541Z,27.80
2018-06-28T17:10:22.986Z,27.83
2018-06-28T17:12:51.469Z,27.76
2018-06-28T17:15:20.375Z,27.66
2018-06-28T17:17:48.935Z,27.67
2018-06-28T17:20:17.459Z,27.54
2018-06-28T17:22:46.064Z,27.39
2018-06-28T17:25:14.920Z,27.17
2018-06-28T17:27:43.428Z,26.98
2018-06-28T17:30:11.914Z,26.78
2018-06-28T17:32:40.761Z,26.60
2018-06-28T17:35:09.229Z,26.36
2018-06-28T17:37:37.762Z,26.28
2018-06-28T17:40:07.008Z,26.30
2018-06-28T17:42:35.567Z,26.29
2018-06-28T17:45:04.141Z,26.16
2018-06-28T17:47:32.642Z,26.04
2018-06-28T17:50:01.066Z,25.98
2018-06-28T17:52:29.661Z,26.02
2018-06-28T17:54:58.325Z,26.01
2018-06-28T17:57:26.826Z,25.88
2018-06-28T17:59:55.330Z,25.81
2018-06-28T18:02:24.116Z,25.77
2018-06-28T18:04:52.786Z,25.73
2018-06-28T18:07:21.210Z,25.65
2018-06-28T18:09:50.229Z,25.59
2018-06-28T18:12:18.787Z,25.58
2018-06-28T18:14:47.813Z,25.53
2018-06-28T18:17:17.293Z,25.46
2018-06-28T18:19:45.733Z,25.42
2018-06-28T18:22:14.247Z,25.39
2018-06-28T18:24:43.261Z,25.38
2018-06-28T18:27:11.777Z,25.30
2018-06-28T18:29:40.222Z,25.22
2018-06-28T18:32:08.857Z,25.13
2018-06-28T18:34:37.277Z,25.12
2018-06-28T18:37:06.462Z,25.04
2018-06-28T18:39:35.051Z,25.01
2018-06-28T18:42:03.595Z,24.95
2018-06-28T18:44:32.079Z,24.72
2018-06-28T18:47:01.501Z,24.87
2018-06-28T18:49:30.653Z,24.86
2018-06-28T18:51:59.933Z,24.84
2018-06-28T18:54:28.998Z,24.76
2018-06-28T18:56:57.577Z,24.67
2018-06-28T18:59:26.167Z,24.67
2018-06-28T19:01:55.334Z,24.69
2018-06-28T19:04:23.838Z,24.69
2018-06-28T19:06:52.561Z,24.71
2018-06-28T19:09:21.200Z,24.74
2018-06-28T19:11:49.626Z,24.77
2018-06-28T19:14:23.378Z,24.81
2018-06-28T19:16:56.865Z,24.89
2018-06-28T19:19:25.698Z,24.96
2018-06-28T19:21:59.452Z,25.00
2018-06-28T19:24:28.006Z,25.05
2018-06-28T19:26:56.573Z,25.10
2018-06-28T19:29:30.360Z,25.14
2018-06-28T19:33:05.375Z,25.20
2018-06-28T19:35:33.965Z,25.19
2018-06-28T19:38:02.869Z,24.73
2018-06-28T19:40:36.826Z,24.24
2018-06-28T19:43:07.789Z,23.71
2018-06-28T19:45:37.359Z,23.32
2018-06-28T19:48:06.190Z,23.02
2018-06-28T19:50:40.007Z,22.76
2018-06-28T19:53:12.941Z,22.58
2018-06-28T19:55:41.453Z,22.41
2018-06-28T19:58:10.070Z,22.28
2018-06-28T20:00:43.923Z,22.12
2018-06-28T20:05:25.409Z,21.99
2018-06-28T20:07:54.134Z,21.69
2018-06-28T20:10:22.705Z,21.49
2018-06-28T20:12:56.705Z,21.32
2018-06-28T20:16:01.325Z,21.18
2018-06-28T20:18:35.195Z,20.93
2018-06-28T20:21:04.635Z,20.79
2018-06-28T20:23:33.069Z,20.69
2018-06-28T20:26:06.849Z,20.58
2018-06-28T20:28:40.821Z,20.48
2018-06-28T20:31:15.180Z,20.40
2018-06-28T20:33:48.913Z,20.24
2018-06-28T20:36:17.383Z,20.14
2018-06-28T20:38:46.010Z,20.05
2018-06-28T20:41:14.453Z,20.01
2018-06-28T20:43:43.065Z,19.91
2018-06-28T20:46:11.758Z,19.81
2018-06-28T20:48:40.189Z,19.67
2018-06-28T20:51:08.760Z,19.65
2018-06-28T20:53:37.862Z,19.51
2018-06-28T20:56:06.593Z,19.38
2018-06-28T20:58:36.617Z,19.27
2018-06-28T21:01:06.072Z,19.17
2018-06-28T21:03:35.485Z,19.16
2018-06-28T21:06:04.603Z,19.02
2018-06-28T21:08:33.358Z,18.86
2018-06-28T21:11:02.389Z,18.59
2018-06-28T21:13:31.095Z,18.33
2018-06-28T21:16:00.254Z,18.11
2018-06-28T21:18:28.683Z,17.83
2018-06-28T21:20:57.274Z,17.67
2018-06-28T21:23:26.615Z,17.51
2018-06-28T21:25:55.038Z,17.37
2018-06-28T21:28:24.010Z,17.19
2018-06-28T21:30:52.521Z,17.08
2018-06-28T21:33:21.397Z,17.05
2018-06-28T21:35:49.931Z,17.01
2018-06-28T21:38:18.349Z,17.02
2018-06-28T21:40:46.777Z,17.00
2018-06-28T21:43:15.461Z,17.02
2018-06-28T21:45:44.213Z,17.07
2018-06-28T21:48:12.697Z,17.07
2018-06-28T21:50:41.219Z,17.02
2018-06-28T21:53:09.745Z,17.03
2018-06-28T21:55:38.193Z,17.06
2018-06-28T21:58:06.869Z,17.06
2018-06-28T22:00:36.612Z,17.06
2018-06-28T22:03:07.333Z,17.06
2018-06-28T22:05:36.245Z,17.07
2018-06-28T22:08:06.157Z,17.07
2018-06-28T22:10:34.761Z,17.01
2018-06-28T22:13:03.587Z,16.95
2018-06-28T22:15:32.521Z,16.89
2018-06-28T22:18:02.197Z,16.81
2018-06-28T22:20:31.757Z,16.75
2018-06-28T22:23:00.657Z,16.69
2018-06-28T22:25:30.588Z,16.61
2018-06-28T22:27:59.345Z,16.55
2018-06-28T22:30:28.019Z,16.50
2018-06-28T22:32:56.526Z,16.44
2018-06-28T22:35:26.048Z,16.39
2018-06-28T22:37:54.465Z,16.35
2018-06-28T22:40:23.024Z,16.33
2018-06-28T22:42:51.603Z,16.28
2018-06-28T22:45:20.025Z,16.24
2018-06-28T22:47:48.686Z,16.22
2018-06-28T22:50:18.340Z,16.20
2018-06-28T22:52:46.758Z,16.14
2018-06-28T22:55:15.218Z,16.10
2018-06-28T22:57:43.893Z,16.08
2018-06-28T23:00:13.102Z,16.05
2018-06-28T23:02:41.553Z,16.02
2018-06-28T23:05:10.566Z,16.01
2018-06-28T23:07:39.112Z,15.97
2018-06-28T23:10:08.136Z,15.96
2018-06-28T23:12:37.185Z,15.98
2018-06-28T23:15:05.650Z,15.97
2018-06-28T23:17:34.113Z,15.94
2018-06-28T23:20:02.985Z,15.92
2018-06-28T23:22:44.392Z,15.92
2018-06-28T23:25:14.823Z,15.87
2018-06-28T23:27:44.389Z,15.87
2018-06-28T23:30:13.289Z,15.84
2018-06-28T23:32:42.549Z,15.84
2018-06-28T23:35:11.963Z,15.80
2018-06-28T23:37:40.705Z,15.75
2018-06-28T23:40:09.273Z,15.74
2018-06-28T23:42:38.422Z,15.71
2018-06-28T23:45:07.653Z,15.67
2018-06-28T23:47:36.470Z,15.60
2018-06-28T23:50:05.857Z,15.53
2018-06-28T23:52:34.465Z,15.49
2018-06-28T23:55:02.903Z,15.43
2018-06-28T23:57:31.642Z,15.21
